Terminal Aerodrome Forecast
Issued by NWS

Home | Current Version | Previous Version | Text Only | Print | Product List | Glossary Off
Versions: 1 2 3 4 5 6 7 8 9 10 11 12 13 14 15 16 17 18 19 20 21 22 23 24 25 26 27 28 29 30 31 32 33 34 35 36

000
FTUS43 KLOT 292100 AAC
TAFORD
TAF AMD
KORD 292110Z 2921/3024 30009KT P6SM SCT060
     FM292315 03015G25KT 6SM HZ SCT010 BKN050
     FM300015 03012KT 6SM HZ BKN007 OVC010
      TEMPO 3003/3007 4SM -DZRA
     FM300700 03009KT 6SM BR SCT007 OVC010
     FM301400 35006KT P6SM BKN015
     FM302100 06009KT P6SM BKN018=

USA.gov is the U.S. government's official web portal to all federal, state and local government web resources and services.